Time;durP1;ratioP1;P1;durP2;ratioP2;P2;SDS_P1;SDS_P2;PMS_P1;PMS_P2;Temp;Humidity;BMP_temperature;BMP_pressure;BME280_temperature;BME280_humidity;BME280_pressure;Samples;Min_cycle;Max_cycle;Signal;HPM_P1;HPM_P2
2023/10/28 00:04:51;;;;;;;;;;;;;;;;;;5035614;28;5026;-58
2023/10/28 00:07:16;;;;;;;;;;;;;;;;;;5013765;28;5000;-59
2023/10/28 00:09:41;;;;;;;;;;;;;;;;;;5018699;28;5167;-59
2023/10/28 00:12:08;;;;;;;;;;;;;;;;;;5035272;28;4655;-59
2023/10/28 00:14:33;;;;;;;;;;;;;;;;;;5033741;28;1061;-63
2023/10/28 00:17:09;;;;;;;;;;;;;;;;;;5025776;28;5040;-59
2023/10/28 00:19:48;;;;;;;;;;;;;;;;;;5031322;28;5066;-59
2023/10/28 00:22:14;;;;;;;;;;;;;;;;;;5038649;28;4869;-59
2023/10/28 00:24:41;;;;;;;;;;;;;;;;;;5026778;28;4641;-59
2023/10/28 00:27:07;;;;;;;;;;;;;;;;;;5029565;28;5013;-59
2023/10/28 00:35:45;;;;;;;;;;;;;;;;;;5021035;28;4723;-59
2023/10/28 00:38:10;;;;;;;;;;;;;;;;;;5015225;28;4874;-58
2023/10/28 00:40:36;;;;;;;;;;;;;;;;;;5031632;28;4547;-59
2023/10/28 00:43:22;;;;;;;;;;;;;;;;;;5034809;28;5076;-58
2023/10/28 00:46:18;;;;;;;;;;;;;;;;;;5019987;28;5113;-58
2023/10/28 00:54:48;;;;;;;;;;;;;;;;;;5012186;28;4719;-59
2023/10/28 00:57:17;;;;;;;;;;;;;;;;;;5011878;28;4693;-62
2023/10/28 00:59:42;;;;;;;;;;;;;;;;;;5011781;28;1906;-59
2023/10/28 01:02:17;;;;;;;;;;;;;;;;;;5013494;28;4684;-58
2023/10/28 01:04:42;;;;;;;;;;;;;;;;;;5017826;28;5020;-58
2023/10/28 01:07:08;;;;;;;;;;;;;;;;;;5025760;28;4797;-58
2023/10/28 01:09:43;;;;;;;;;;;;;;;;;;4994746;28;4691;-59
2023/10/28 01:12:09;;;;;;;;;;;;;;;;;;5018145;28;5171;-59
2023/10/28 01:14:34;;;;;;;;;;;;;;;;;;5013180;28;1039;-60
2023/10/28 01:17:03;;;;;;;;;;;;;;;;;;5013775;28;4593;-59
2023/10/28 01:19:29;;;;;;;;;;;;;;;;;;5042494;28;5805;-58
2023/10/28 01:21:54;;;;;;;;;;;;;;;;;;5037209;28;4661;-59
2023/10/28 01:24:20;;;;;;;;;;;;;;;;;;5022454;28;4510;-58
2023/10/28 01:26:51;;;;;;;;;;;;;;;;;;5016810;28;1281;-59
2023/10/28 01:29:17;;;;;;;;;;;;;;;;;;5012505;28;5036;-59
2023/10/28 01:31:42;;;;;;;;;;;;;;;;;;5012603;28;5088;-59
2023/10/28 01:34:07;;;;;;;;;;;;;;;;;;5033678;28;5050;-57
2023/10/28 01:36:34;;;;;;;;;;;;;;;;;;5017249;28;5282;-58
2023/10/28 01:38:59;;;;;;;;;;;;;;;;;;5019769;28;5014;-58
2023/10/28 01:41:24;;;;;;;;;;;;;;;;;;5020575;28;1902;-58
2023/10/28 01:47:03;;;;;;;;;;;;;;;;;;5022229;28;5047;-58
2023/10/28 01:52:32;;;;;;;;;;;;;;;;;;5053924;28;5081;-58
2023/10/28 01:55:13;;;;;;;;;;;;;;;;;;5035259;28;5095;-57
2023/10/28 01:57:38;;;;;;;;;;;;;;;;;;5014435;28;5090;-58
2023/10/28 02:00:07;;;;;;;;;;;;;;;;;;4996055;28;5089;-57
2023/10/28 02:02:33;;;;;;;;;;;;;;;;;;5012560;28;962;-58
2023/10/28 02:04:58;;;;;;;;;;;;;;;;;;5012449;28;5131;-58
2023/10/28 02:10:28;;;;;;;;;;;;;;;;;;5012993;28;4696;-58
2023/10/28 02:13:15;;;;;;;;;;;;;;;;;;5010796;28;5249;-57
2023/10/28 02:15:43;;;;;;;;;;;;;;;;;;5017053;28;5077;-58
2023/10/28 02:18:08;;;;;;;;;;;;;;;;;;5033608;28;4464;-58
2023/10/28 02:20:35;;;;;;;;;;;;;;;;;;5033928;28;1910;-58
2023/10/28 02:23:01;;;;;;;;;;;;;;;;;;5018356;28;4969;-58
2023/10/28 02:25:27;;;;;;;;;;;;;;;;;;5018885;28;4775;-57
2023/10/28 02:27:52;;;;;;;;;;;;;;;;;;5023344;28;4881;-56
2023/10/28 02:30:17;;;;;;;;;;;;;;;;;;5013654;28;4742;-58
2023/10/28 02:32:43;;;;;;;;;;;;;;;;;;5011570;28;1137;-58
2023/10/28 02:35:08;;;;;;;;;;;;;;;;;;5011802;28;5020;-59
2023/10/28 02:37:34;;;;;;;;;;;;;;;;;;5011339;28;5064;-57
2023/10/28 02:39:59;;;;;;;;;;;;;;;;;;5010047;28;5614;-57
2023/10/28 02:42:24;;;;;;;;;;;;;;;;;;5020690;28;4449;-62
2023/10/28 02:53:58;;;;;;;;;;;;;;;;;;5020631;28;5048;-60
2023/10/28 02:56:24;;;;;;;;;;;;;;;;;;5036479;28;1122;-57
2023/10/28 02:58:50;;;;;;;;;;;;;;;;;;5036789;28;4895;-57
2023/10/28 03:04:18;;;;;;;;;;;;;;;;;;5024013;28;4972;-60
2023/10/28 03:06:43;;;;;;;;;;;;;;;;;;5012580;28;5121;-57
2023/10/28 03:09:09;;;;;;;;;;;;;;;;;;5013009;28;4711;-58
2023/10/28 03:11:34;;;;;;;;;;;;;;;;;;5020472;28;1305;-61
2023/10/28 03:14:25;;;;;;;;;;;;;;;;;;5054943;28;4938;-58
2023/10/28 03:16:51;;;;;;;;;;;;;;;;;;5014676;28;4848;-58
2023/10/28 03:19:16;;;;;;;;;;;;;;;;;;5016681;28;5088;-58
2023/10/28 03:21:42;;;;;;;;;;;;;;;;;;5009373;28;5127;-58
2023/10/28 03:24:14;;;;;;;;;;;;;;;;;;5031653;28;4653;-59
2023/10/28 03:26:40;;;;;;;;;;;;;;;;;;5018249;28;1484;-58
2023/10/28 03:29:05;;;;;;;;;;;;;;;;;;5022161;28;5240;-58
2023/10/28 03:34:40;;;;;;;;;;;;;;;;;;5028545;28;5173;-58
2023/10/28 03:37:18;;;;;;;;;;;;;;;;;;5010761;28;5181;-58
2023/10/28 03:39:44;;;;;;;;;;;;;;;;;;5011650;28;4697;-58
2023/10/28 03:42:11;;;;;;;;;;;;;;;;;;5038202;28;4493;-58
2023/10/28 03:44:36;;;;;;;;;;;;;;;;;;5026704;28;1193;-58
2023/10/28 03:47:04;;;;;;;;;;;;;;;;;;5001500;28;4483;-58
2023/10/28 03:49:29;;;;;;;;;;;;;;;;;;5028160;28;5192;-59
2023/10/28 03:51:55;;;;;;;;;;;;;;;;;;5016182;28;4874;-59
2023/10/28 04:04:47;;;;;;;;;;;;;;;;;;5015888;28;5145;-58
2023/10/28 04:07:13;;;;;;;;;;;;;;;;;;5023335;28;4599;-58
2023/10/28 04:09:38;;;;;;;;;;;;;;;;;;5035375;28;4433;-58
2023/10/28 04:12:05;;;;;;;;;;;;;;;;;;5032619;28;5028;-60
2023/10/28 04:23:44;;;;;;;;;;;;;;;;;;5012517;28;4601;-58
2023/10/28 04:32:35;;;;;;;;;;;;;;;;;;5010133;28;5063;-58
2023/10/28 04:35:01;;;;;;;;;;;;;;;;;;5007609;28;5205;-58
2023/10/28 04:37:26;;;;;;;;;;;;;;;;;;5012849;28;5021;-58
2023/10/28 04:39:52;;;;;;;;;;;;;;;;;;5013197;28;5030;-58
2023/10/28 04:42:18;;;;;;;;;;;;;;;;;;5011620;28;5091;-58
2023/10/28 04:44:44;;;;;;;;;;;;;;;;;;4999114;28;1448;-58
2023/10/28 04:47:09;;;;;;;;;;;;;;;;;;5029657;28;4970;-58
2023/10/28 04:49:34;;;;;;;;;;;;;;;;;;5009143;28;4480;-58
2023/10/28 04:51:59;;;;;;;;;;;;;;;;;;5012190;28;4449;-57
2023/10/28 04:54:25;;;;;;;;;;;;;;;;;;5014618;28;4912;-58
2023/10/28 04:56:50;;;;;;;;;;;;;;;;;;5014410;28;4566;-56
2023/10/28 04:59:15;;;;;;;;;;;;;;;;;;5017527;28;1072;-59
2023/10/28 05:01:53;;;;;;;;;;;;;;;;;;5010713;28;4658;-57
2023/10/28 05:04:19;;;;;;;;;;;;;;;;;;5013925;28;5107;-58
2023/10/28 05:06:44;;;;;;;;;;;;;;;;;;5026447;28;5235;-60
2023/10/28 05:09:21;;;;;;;;;;;;;;;;;;5019130;28;5009;-59
2023/10/28 05:11:59;;;;;;;;;;;;;;;;;;5016648;28;1114;-61
2023/10/28 05:14:37;;;;;;;;;;;;;;;;;;5015620;28;5037;-59
2023/10/28 05:17:02;;;;;;;;;;;;;;;;;;5009935;28;4693;-58
2023/10/28 05:19:28;;;;;;;;;;;;;;;;;;5024200;28;4840;-58
2023/10/28 05:25:18;;;;;;;;;;;;;;;;;;5022005;28;5131;-58
2023/10/28 05:27:43;;;;;;;;;;;;;;;;;;5016203;28;5118;-58
2023/10/28 05:30:11;;;;;;;;;;;;;;;;;;5033890;28;5055;-58
2023/10/28 05:32:36;;;;;;;;;;;;;;;;;;5029719;28;2956;-58
2023/10/28 05:35:02;;;;;;;;;;;;;;;;;;5008276;28;4510;-60
2023/10/28 05:37:52;;;;;;;;;;;;;;;;;;4990195;28;4953;-59
2023/10/28 05:40:29;;;;;;;;;;;;;;;;;;5013014;28;5101;-58
2023/10/28 05:42:55;;;;;;;;;;;;;;;;;;5009429;28;4526;-58
2023/10/28 05:45:20;;;;;;;;;;;;;;;;;;5012533;28;4805;-58
2023/10/28 05:48:06;;;;;;;;;;;;;;;;;;4995086;28;1498;-59
2023/10/28 05:50:32;;;;;;;;;;;;;;;;;;5020848;28;4987;-58
2023/10/28 05:56:00;;;;;;;;;;;;;;;;;;5013022;28;4986;-58
2023/10/28 06:01:28;;;;;;;;;;;;;;;;;;5015487;28;5155;-58
2023/10/28 06:03:53;;;;;;;;;;;;;;;;;;5014099;28;4548;-58
2023/10/28 06:06:19;;;;;;;;;;;;;;;;;;5014191;28;5023;-59
2023/10/28 06:08:44;;;;;;;;;;;;;;;;;;5014844;28;1263;-59
2023/10/28 06:20:17;;;;;;;;;;;;;;;;;;5014642;28;4564;-59
2023/10/28 06:22:42;;;;;;;;;;;;;;;;;;5012013;28;4725;-59
2023/10/28 06:25:08;;;;;;;;;;;;;;;;;;4993930;28;5141;-59
2023/10/28 06:27:34;;;;;;;;;;;;;;;;;;5027518;28;4706;-59
2023/10/28 06:30:00;;;;;;;;;;;;;;;;;;4997881;28;4505;-59
2023/10/28 06:32:27;;;;;;;;;;;;;;;;;;5011836;28;3729;-64
2023/10/28 06:37:59;;;;;;;;;;;;;;;;;;5015470;28;5134;-65
2023/10/28 06:40:24;;;;;;;;;;;;;;;;;;5015465;28;5088;-67
2023/10/28 06:42:50;;;;;;;;;;;;;;;;;;5026970;28;4576;-67
2023/10/28 06:45:15;;;;;;;;;;;;;;;;;;5027782;28;5121;-70
2023/10/28 06:51:03;;;;;;;;;;;;;;;;;;5015927;28;4574;-65
2023/10/28 06:56:31;;;;;;;;;;;;;;;;;;5017777;28;4762;-66
2023/10/28 06:58:57;;;;;;;;;;;;;;;;;;5001683;28;4847;-64
2023/10/28 07:01:22;;;;;;;;;;;;;;;;;;5014745;28;4474;-64
2023/10/28 07:03:47;;;;;;;;;;;;;;;;;;5041797;28;5029;-65
2023/10/28 07:06:16;;;;;;;;;;;;;;;;;;5000796;28;5096;-60
2023/10/28 07:08:41;;;;;;;;;;;;;;;;;;5040947;28;3060;-60
2023/10/28 07:11:07;;;;;;;;;;;;;;;;;;5020819;28;4574;-60
2023/10/28 07:13:32;;;;;;;;;;;;;;;;;;5022124;28;4531;-60
2023/10/28 07:16:17;;;;;;;;;;;;;;;;;;5035712;28;4549;-57
2023/10/28 07:18:43;;;;;;;;;;;;;;;;;;5018232;28;5034;-58
2023/10/28 07:21:08;;;;;;;;;;;;;;;;;;5004843;28;5396;-56
2023/10/28 07:26:42;;;;;;;;;;;;;;;;;;5013615;28;4835;-56
2023/10/28 07:29:08;;;;;;;;;;;;;;;;;;5011239;28;4592;-56
2023/10/28 07:31:33;;;;;;;;;;;;;;;;;;5025681;28;5301;-58
2023/10/28 07:34:00;;;;;;;;;;;;;;;;;;5014786;28;4964;-56
2023/10/28 07:39:27;;;;;;;;;;;;;;;;;;5016041;28;4518;-56
2023/10/28 07:41:59;;;;;;;;;;;;;;;;;;5013172;28;4726;-56
2023/10/28 07:44:24;;;;;;;;;;;;;;;;;;5016469;28;1084;-56
2023/10/28 07:46:50;;;;;;;;;;;;;;;;;;5023411;28;4879;-56
2023/10/28 07:52:18;;;;;;;;;;;;;;;;;;5015667;28;5295;-56
2023/10/28 07:55:09;;;;;;;;;;;;;;;;;;5027453;28;5046;-57
2023/10/28 08:01:20;;;;;;;;;;;;;;;;;;5031063;28;4638;-62
2023/10/28 08:03:46;;;;;;;;;;;;;;;;;;5035467;28;4497;-63
2023/10/28 08:06:11;;;;;;;;;;;;;;;;;;5033929;28;5133;-62
2023/10/28 08:11:40;;;;;;;;;;;;;;;;;;5036167;28;4601;-62
2023/10/28 08:14:05;;;;;;;;;;;;;;;;;;5035036;28;4563;-58
2023/10/28 08:16:31;;;;;;;;;;;;;;;;;;5035435;28;4492;-59
2023/10/28 08:18:58;;;;;;;;;;;;;;;;;;5017814;28;4501;-61
2023/10/28 08:24:26;;;;;;;;;;;;;;;;;;5035213;28;4592;-61
2023/10/28 08:26:51;;;;;;;;;;;;;;;;;;5032516;28;4840;-61
2023/10/28 08:29:16;;;;;;;;;;;;;;;;;;5036025;28;962;-60
2023/10/28 08:31:42;;;;;;;;;;;;;;;;;;5033904;28;5130;-61
2023/10/28 08:34:07;;;;;;;;;;;;;;;;;;5050537;28;4869;-62
2023/10/28 08:36:36;;;;;;;;;;;;;;;;;;5033673;28;4451;-62
2023/10/28 08:39:01;;;;;;;;;;;;;;;;;;5035484;28;4518;-63
2023/10/28 08:41:26;;;;;;;;;;;;;;;;;;5027874;28;2836;-63
2023/10/28 08:43:52;;;;;;;;;;;;;;;;;;5017640;28;4607;-62
2023/10/28 08:46:21;;;;;;;;;;;;;;;;;;5004301;28;4748;-61
2023/10/28 08:48:57;;;;;;;;;;;;;;;;;;5012213;28;5080;-62
2023/10/28 08:51:23;;;;;;;;;;;;;;;;;;5016502;28;5005;-61
2023/10/28 08:53:57;;;;;;;;;;;;;;;;;;5025849;28;3366;-62
2023/10/28 08:56:25;;;;;;;;;;;;;;;;;;5040278;28;5062;-60
2023/10/28 08:58:52;;;;;;;;;;;;;;;;;;5029754;28;4633;-56
2023/10/28 09:01:19;;;;;;;;;;;;;;;;;;5026597;28;4715;-54
2023/10/28 09:03:46;;;;;;;;;;;;;;;;;;5040251;28;5169;-55
2023/10/28 09:06:11;;;;;;;;;;;;;;;;;;5017103;28;5023;-55
2023/10/28 09:08:38;;;;;;;;;;;;;;;;;;5013559;28;1507;-55
2023/10/28 09:11:31;;;;;;;;;;;;;;;;;;5028597;28;5080;-56
2023/10/28 09:17:20;;;;;;;;;;;;;;;;;;5013734;28;5378;-56
2023/10/28 09:19:46;;;;;;;;;;;;;;;;;;5000563;28;4926;-56
2023/10/28 09:22:11;;;;;;;;;;;;;;;;;;5020127;28;4536;-56
2023/10/28 09:24:38;;;;;;;;;;;;;;;;;;5025018;28;5022;-56
2023/10/28 09:27:13;;;;;;;;;;;;;;;;;;5005288;28;5154;-56
2023/10/28 09:29:41;;;;;;;;;;;;;;;;;;5021731;28;4828;-57
2023/10/28 09:32:07;;;;;;;;;;;;;;;;;;4987236;28;4485;-57
2023/10/28 09:34:33;;;;;;;;;;;;;;;;;;5008859;28;4505;-57
2023/10/28 09:36:59;;;;;;;;;;;;;;;;;;5020856;28;4706;-57
2023/10/28 09:39:24;;;;;;;;;;;;;;;;;;5013408;28;5174;-57
2023/10/28 09:41:51;;;;;;;;;;;;;;;;;;5028081;28;1979;-57
2023/10/28 09:50:28;;;;;;;;;;;;;;;;;;5014983;28;4609;-56
2023/10/28 09:52:57;;;;;;;;;;;;;;;;;;5029372;28;4602;-60
2023/10/28 09:55:26;;;;;;;;;;;;;;;;;;5013981;28;4595;-60
2023/10/28 09:57:51;;;;;;;;;;;;;;;;;;5044814;28;4668;-57
2023/10/28 10:00:18;;;;;;;;;;;;;;;;;;5029989;28;4855;-60
2023/10/28 10:02:52;;;;;;;;;;;;;;;;;;5016658;28;3101;-59
2023/10/28 10:05:23;;;;;;;;;;;;;;;;;;5038137;28;4952;-61
2023/10/28 10:10:52;;;;;;;;;;;;;;;;;;5016130;28;4415;-60
2023/10/28 10:13:17;;;;;;;;;;;;;;;;;;5017440;28;4880;-61
2023/10/28 10:15:51;;;;;;;;;;;;;;;;;;5023423;28;4908;-61
2023/10/28 10:18:21;;;;;;;;;;;;;;;;;;5036422;28;5147;-60
2023/10/28 10:21:03;;;;;;;;;;;;;;;;;;5028536;28;1963;-62
2023/10/28 10:23:33;;;;;;;;;;;;;;;;;;5013725;28;5049;-59
2023/10/28 10:32:14;;;;;;;;;;;;;;;;;;5054347;28;5011;-57
2023/10/28 10:34:45;;;;;;;;;;;;;;;;;;5013739;28;4897;-57
2023/10/28 10:37:20;;;;;;;;;;;;;;;;;;5015086;28;4504;-57
2023/10/28 10:49:05;;;;;;;;;;;;;;;;;;5019537;28;5210;-57
2023/10/28 10:51:30;;;;;;;;;;;;;;;;;;5022567;28;5009;-60
2023/10/28 10:54:34;;;;;;;;;;;;;;;;;;5037425;28;4915;-61
2023/10/28 11:00:11;;;;;;;;;;;;;;;;;;5020846;28;5122;-64
2023/10/28 11:02:37;;;;;;;;;;;;;;;;;;5014249;28;3411;-62
2023/10/28 11:05:03;;;;;;;;;;;;;;;;;;5041812;28;5140;-62
2023/10/28 11:07:28;;;;;;;;;;;;;;;;;;5018959;28;5034;-63
2023/10/28 11:10:12;;;;;;;;;;;;;;;;;;5020817;28;5462;-63
2023/10/28 11:12:38;;;;;;;;;;;;;;;;;;5007996;28;5155;-58
2023/10/28 11:15:24;;;;;;;;;;;;;;;;;;5025573;28;4758;-61
2023/10/28 11:17:50;;;;;;;;;;;;;;;;;;5016962;28;1204;-58
2023/10/28 11:20:21;;;;;;;;;;;;;;;;;;5021358;28;5041;-58
2023/10/28 11:22:47;;;;;;;;;;;;;;;;;;5002697;28;5076;-58
2023/10/28 11:25:20;;;;;;;;;;;;;;;;;;4993835;28;4616;-59
2023/10/28 11:27:48;;;;;;;;;;;;;;;;;;5011298;28;4658;-60
2023/10/28 11:30:13;;;;;;;;;;;;;;;;;;5010729;28;5122;-64
2023/10/28 11:32:40;;;;;;;;;;;;;;;;;;5041761;28;1192;-64
2023/10/28 11:35:06;;;;;;;;;;;;;;;;;;5017754;28;4448;-64
2023/10/28 11:37:31;;;;;;;;;;;;;;;;;;5014086;28;4941;-64
2023/10/28 11:43:02;;;;;;;;;;;;;;;;;;5012412;28;5277;-60
2023/10/28 11:45:28;;;;;;;;;;;;;;;;;;5014240;28;5317;-59
2023/10/28 11:47:53;;;;;;;;;;;;;;;;;;5012335;28;5110;-58
2023/10/28 11:50:18;;;;;;;;;;;;;;;;;;5015544;28;1214;-58
2023/10/28 11:55:48;;;;;;;;;;;;;;;;;;5010289;28;4568;-59
2023/10/28 11:58:13;;;;;;;;;;;;;;;;;;5023105;28;5016;-59
2023/10/28 12:00:39;;;;;;;;;;;;;;;;;;5035011;28;5044;-59
2023/10/28 12:03:04;;;;;;;;;;;;;;;;;;5029484;28;5541;-59
2023/10/28 12:06:02;;;;;;;;;;;;;;;;;;5018756;28;1323;-59
2023/10/28 12:08:28;;;;;;;;;;;;;;;;;;5033517;28;5114;-59
2023/10/28 12:10:53;;;;;;;;;;;;;;;;;;5013585;28;5160;-59
2023/10/28 12:13:19;;;;;;;;;;;;;;;;;;5015435;28;5105;-59
2023/10/28 12:18:59;;;;;;;;;;;;;;;;;;5028100;28;4446;-59
2023/10/28 12:30:44;;;;;;;;;;;;;;;;;;5035019;28;4642;-61
2023/10/28 12:33:11;;;;;;;;;;;;;;;;;;5022904;28;4660;-59
2023/10/28 12:35:36;;;;;;;;;;;;;;;;;;5040031;28;1197;-63
2023/10/28 12:38:01;;;;;;;;;;;;;;;;;;5054515;28;5068;-63
2023/10/28 12:40:27;;;;;;;;;;;;;;;;;;5052547;28;4863;-59
2023/10/28 12:42:52;;;;;;;;;;;;;;;;;;5039796;28;5059;-61
2023/10/28 12:45:18;;;;;;;;;;;;;;;;;;5013446;28;4477;-62
2023/10/28 12:47:43;;;;;;;;;;;;;;;;;;5025693;28;3032;-62
2023/10/28 13:20:01;;;;;;;;;;;;;;;;;;5015434;28;4713;-62
2023/10/28 13:29:05;;;;;;;;;;;;;;;;;;5014165;28;5114;-66
2023/10/28 13:31:30;;;;;;;;;;;;;;;;;;5010792;28;5016;-62
2023/10/28 13:33:56;;;;;;;;;;;;;;;;;;4993864;28;5196;-63
2023/10/28 13:36:21;;;;;;;;;;;;;;;;;;4993123;28;5006;-61
2023/10/28 13:42:06;;;;;;;;;;;;;;;;;;5016272;28;5126;-59
2023/10/28 13:53:45;;;;;;;;;;;;;;;;;;5012500;28;4928;-61
2023/10/28 13:59:13;;;;;;;;;;;;;;;;;;5033295;28;5127;-61
2023/10/28 14:01:39;;;;;;;;;;;;;;;;;;5029888;28;4956;-61
2023/10/28 14:04:05;;;;;;;;;;;;;;;;;;4995391;28;5111;-61
2023/10/28 14:06:30;;;;;;;;;;;;;;;;;;5038857;28;4643;-60
2023/10/28 14:08:56;;;;;;;;;;;;;;;;;;5014061;28;4492;-62
2023/10/28 14:11:24;;;;;;;;;;;;;;;;;;5012459;28;2496;-60
2023/10/28 14:13:50;;;;;;;;;;;;;;;;;;5013912;28;4439;-70
2023/10/28 14:19:18;;;;;;;;;;;;;;;;;;5015844;28;4621;-66
2023/10/28 14:21:43;;;;;;;;;;;;;;;;;;5013767;28;5120;-66
2023/10/28 14:24:09;;;;;;;;;;;;;;;;;;5010549;28;6031;-69
2023/10/28 14:26:35;;;;;;;;;;;;;;;;;;5013481;28;1361;-69
2023/10/28 14:29:34;;;;;;;;;;;;;;;;;;5011875;28;4741;-68
2023/10/28 14:32:00;;;;;;;;;;;;;;;;;;5027943;28;4488;-61
2023/10/28 14:34:26;;;;;;;;;;;;;;;;;;5017625;28;4736;-59
2023/10/28 14:36:51;;;;;;;;;;;;;;;;;;5012780;28;4500;-59
2023/10/28 14:39:16;;;;;;;;;;;;;;;;;;5009427;28;5052;-59
2023/10/28 14:41:42;;;;;;;;;;;;;;;;;;5009961;28;3377;-59
2023/10/28 14:44:08;;;;;;;;;;;;;;;;;;5035898;28;4962;-60
2023/10/28 14:46:40;;;;;;;;;;;;;;;;;;5010561;28;4932;-59
2023/10/28 14:52:10;;;;;;;;;;;;;;;;;;5007926;28;4586;-60
2023/10/28 14:54:36;;;;;;;;;;;;;;;;;;5025080;28;6011;-58
2023/10/28 14:57:02;;;;;;;;;;;;;;;;;;5016716;28;4636;-59
2023/10/28 14:59:27;;;;;;;;;;;;;;;;;;5042524;28;3067;-59
2023/10/28 15:01:52;;;;;;;;;;;;;;;;;;5034242;28;4611;-59
2023/10/28 15:04:18;;;;;;;;;;;;;;;;;;4994570;28;5043;-58
2023/10/28 15:06:44;;;;;;;;;;;;;;;;;;5035622;28;5231;-64
2023/10/28 15:09:25;;;;;;;;;;;;;;;;;;5018830;28;5914;-59
2023/10/28 15:11:50;;;;;;;;;;;;;;;;;;5026888;28;3311;-62
2023/10/28 15:14:16;;;;;;;;;;;;;;;;;;5031226;28;5172;-62
2023/10/28 15:16:41;;;;;;;;;;;;;;;;;;5049426;28;4913;-62
2023/10/28 15:19:06;;;;;;;;;;;;;;;;;;5022945;28;5026;-62
2023/10/28 15:21:32;;;;;;;;;;;;;;;;;;5029459;28;4657;-66
2023/10/28 15:23:59;;;;;;;;;;;;;;;;;;5015819;28;5177;-68
2023/10/28 15:26:33;;;;;;;;;;;;;;;;;;5018875;28;3059;-63
2023/10/28 15:29:15;;;;;;;;;;;;;;;;;;5016263;28;5051;-64
2023/10/28 15:31:41;;;;;;;;;;;;;;;;;;5023248;28;5083;-60
2023/10/28 15:34:07;;;;;;;;;;;;;;;;;;5016117;28;5105;-61
2023/10/28 15:36:32;;;;;;;;;;;;;;;;;;5041380;28;4530;-68
2023/10/28 15:38:58;;;;;;;;;;;;;;;;;;5016159;28;4380;-65
2023/10/28 15:44:34;;;;;;;;;;;;;;;;;;5011948;28;4576;-60
2023/10/28 15:53:05;;;;;;;;;;;;;;;;;;5030569;28;4994;-61
2023/10/28 15:55:38;;;;;;;;;;;;;;;;;;5018361;28;5022;-61
2023/10/28 15:58:03;;;;;;;;;;;;;;;;;;5015917;28;5238;-61
2023/10/28 16:03:38;;;;;;;;;;;;;;;;;;5014541;28;4942;-61
2023/10/28 16:09:24;;;;;;;;;;;;;;;;;;5010355;28;4591;-61
2023/10/28 16:11:50;;;;;;;;;;;;;;;;;;5004980;28;3102;-60
2023/10/28 16:14:15;;;;;;;;;;;;;;;;;;5029560;28;4549;-61
2023/10/28 16:16:41;;;;;;;;;;;;;;;;;;5022430;28;4516;-61
2023/10/28 16:19:30;;;;;;;;;;;;;;;;;;5012493;28;4757;-61
2023/10/28 16:21:55;;;;;;;;;;;;;;;;;;5037219;28;4489;-61
2023/10/28 16:27:15;;;;;;;;;;;;;;;;;;5017634;28;4497;-61
2023/10/28 16:32:43;;;;;;;;;;;;;;;;;;5035805;28;4534;-61
2023/10/28 16:35:09;;;;;;;;;;;;;;;;;;5022544;28;4948;-59
2023/10/28 16:37:34;;;;;;;;;;;;;;;;;;5026082;28;5217;-61
2023/10/28 16:40:01;;;;;;;;;;;;;;;;;;5015510;28;4422;-61
2023/10/28 16:46:04;;;;;;;;;;;;;;;;;;5010937;28;5132;-61
2023/10/28 16:48:29;;;;;;;;;;;;;;;;;;5015791;28;4746;-61
2023/10/28 16:50:54;;;;;;;;;;;;;;;;;;5011476;28;4778;-61
2023/10/28 16:53:21;;;;;;;;;;;;;;;;;;5006818;28;2150;-61
2023/10/28 16:55:46;;;;;;;;;;;;;;;;;;4993116;28;4977;-61
2023/10/28 16:58:11;;;;;;;;;;;;;;;;;;5012369;28;5175;-61
2023/10/28 17:00:37;;;;;;;;;;;;;;;;;;5010990;28;5149;-61
2023/10/28 17:03:25;;;;;;;;;;;;;;;;;;5013560;28;4718;-61
2023/10/28 17:06:01;;;;;;;;;;;;;;;;;;5006982;28;4520;-59
2023/10/28 17:08:26;;;;;;;;;;;;;;;;;;5023384;28;3432;-61
2023/10/28 17:10:53;;;;;;;;;;;;;;;;;;5031960;28;4567;-61
2023/10/28 17:13:18;;;;;;;;;;;;;;;;;;5019437;28;5112;-62
2023/10/28 17:15:57;;;;;;;;;;;;;;;;;;5018089;28;4528;-61
2023/10/28 17:18:22;;;;;;;;;;;;;;;;;;5015975;28;4685;-63
2023/10/28 17:20:48;;;;;;;;;;;;;;;;;;5025561;28;2752;-63
2023/10/28 17:23:14;;;;;;;;;;;;;;;;;;5018894;28;4476;-65
2023/10/28 17:25:39;;;;;;;;;;;;;;;;;;5024000;28;5058;-64
2023/10/28 17:28:04;;;;;;;;;;;;;;;;;;5032281;28;5065;-66
2023/10/28 17:33:35;;;;;;;;;;;;;;;;;;5034191;28;5054;-71
2023/10/28 17:36:00;;;;;;;;;;;;;;;;;;5048747;28;4469;-67
2023/10/28 17:38:29;;;;;;;;;;;;;;;;;;5034625;28;1266;-68
2023/10/28 17:40:54;;;;;;;;;;;;;;;;;;5005990;28;5043;-69
2023/10/28 17:43:19;;;;;;;;;;;;;;;;;;5020746;28;5077;-73
2023/10/28 17:45:45;;;;;;;;;;;;;;;;;;5010259;28;5102;-68
2023/10/28 17:48:11;;;;;;;;;;;;;;;;;;5031230;28;5042;-70
2023/10/28 17:53:43;;;;;;;;;;;;;;;;;;5054924;28;4757;-75
2023/10/28 17:56:08;;;;;;;;;;;;;;;;;;5053776;28;4475;-71
2023/10/28 18:04:45;;;;;;;;;;;;;;;;;;5026958;28;5143;-72
2023/10/28 18:10:08;;;;;;;;;;;;;;;;;;5043627;28;5060;-77
2023/10/28 18:12:52;;;;;;;;;;;;;;;;;;5021992;28;4904;-65
2023/10/28 18:21:23;;;;;;;;;;;;;;;;;;5036804;28;5048;-64
2023/10/28 18:23:48;;;;;;;;;;;;;;;;;;5015288;28;3099;-65
2023/10/28 18:26:15;;;;;;;;;;;;;;;;;;5016012;28;5060;-66
2023/10/28 18:28:41;;;;;;;;;;;;;;;;;;5036461;28;4508;-65
2023/10/28 18:31:39;;;;;;;;;;;;;;;;;;5014067;28;5052;-65
2023/10/28 18:34:04;;;;;;;;;;;;;;;;;;5030608;28;4546;-66
2023/10/28 18:36:36;;;;;;;;;;;;;;;;;;5022543;28;4582;-66
2023/10/28 18:39:01;;;;;;;;;;;;;;;;;;5013082;28;5095;-65
2023/10/28 18:41:26;;;;;;;;;;;;;;;;;;5012775;28;2806;-64
2023/10/28 18:43:52;;;;;;;;;;;;;;;;;;5013383;28;5262;-65
2023/10/28 18:46:18;;;;;;;;;;;;;;;;;;5032095;28;4999;-65
2023/10/28 18:48:44;;;;;;;;;;;;;;;;;;5016997;28;4836;-65
2023/10/28 18:54:11;;;;;;;;;;;;;;;;;;5017347;28;4913;-65
2023/10/28 18:59:39;;;;;;;;;;;;;;;;;;5018228;28;4566;-64
2023/10/28 19:05:08;;;;;;;;;;;;;;;;;;5016656;28;5201;-66
2023/10/28 19:10:36;;;;;;;;;;;;;;;;;;5017045;28;5310;-65
2023/10/28 19:13:01;;;;;;;;;;;;;;;;;;5016292;28;4538;-66
2023/10/28 19:15:27;;;;;;;;;;;;;;;;;;5016631;28;4436;-64
2023/10/28 19:17:53;;;;;;;;;;;;;;;;;;5016771;28;5163;-64
2023/10/28 19:23:21;;;;;;;;;;;;;;;;;;5017420;28;4573;-65
2023/10/28 19:25:53;;;;;;;;;;;;;;;;;;5021371;28;4990;-65
2023/10/28 19:28:19;;;;;;;;;;;;;;;;;;5014941;28;4993;-73
2023/10/28 19:30:54;;;;;;;;;;;;;;;;;;5035635;28;5062;-64
2023/10/28 19:33:21;;;;;;;;;;;;;;;;;;5035363;28;5023;-64
2023/10/28 19:38:50;;;;;;;;;;;;;;;;;;5036524;28;5164;-64
2023/10/28 19:41:15;;;;;;;;;;;;;;;;;;5035971;28;1910;-65
2023/10/28 19:43:40;;;;;;;;;;;;;;;;;;5035816;28;4409;-64
2023/10/28 19:46:06;;;;;;;;;;;;;;;;;;5032113;28;5152;-65
2023/10/28 19:48:31;;;;;;;;;;;;;;;;;;5018698;28;5120;-64
2023/10/28 19:51:00;;;;;;;;;;;;;;;;;;5022546;28;4528;-64
2023/10/28 19:53:26;;;;;;;;;;;;;;;;;;5025234;28;3031;-64
2023/10/28 19:55:51;;;;;;;;;;;;;;;;;;5020291;28;4662;-64
2023/10/28 19:58:16;;;;;;;;;;;;;;;;;;5012202;28;5104;-64
2023/10/28 20:00:42;;;;;;;;;;;;;;;;;;5013549;28;5238;-65
2023/10/28 20:03:08;;;;;;;;;;;;;;;;;;5016122;28;5042;-63
2023/10/28 20:05:46;;;;;;;;;;;;;;;;;;5024656;28;2845;-63
2023/10/28 20:08:12;;;;;;;;;;;;;;;;;;5009777;28;4592;-64
2023/10/28 20:10:38;;;;;;;;;;;;;;;;;;5008217;28;5047;-63
2023/10/28 20:13:04;;;;;;;;;;;;;;;;;;5016610;28;4645;-72
2023/10/28 20:15:31;;;;;;;;;;;;;;;;;;5018566;28;4693;-72
2023/10/28 20:17:57;;;;;;;;;;;;;;;;;;5020406;28;5054;-72
2023/10/28 20:20:24;;;;;;;;;;;;;;;;;;5030983;28;1871;-60
2023/10/28 20:22:50;;;;;;;;;;;;;;;;;;5033465;28;4580;-72
2023/10/28 20:25:15;;;;;;;;;;;;;;;;;;5015344;28;5086;-73
2023/10/28 20:27:41;;;;;;;;;;;;;;;;;;5032149;28;5060;-73
2023/10/28 20:30:06;;;;;;;;;;;;;;;;;;5019600;28;5100;-73
2023/10/28 20:32:32;;;;;;;;;;;;;;;;;;5026073;28;2998;-73
2023/10/28 20:35:00;;;;;;;;;;;;;;;;;;5000053;28;4484;-75
2023/10/28 20:37:29;;;;;;;;;;;;;;;;;;5015825;28;5065;-75
2023/10/28 20:42:57;;;;;;;;;;;;;;;;;;5008409;28;5710;-72
2023/10/28 20:48:20;;;;;;;;;;;;;;;;;;5010646;28;5032;-73
2023/10/28 20:50:45;;;;;;;;;;;;;;;;;;5011987;28;2498;-73
2023/10/28 20:53:10;;;;;;;;;;;;;;;;;;5014982;28;4483;-70
2023/10/28 20:58:58;;;;;;;;;;;;;;;;;;5034953;28;4851;-69
2023/10/28 21:04:46;;;;;;;;;;;;;;;;;;5030125;28;5139;-68
2023/10/28 21:07:11;;;;;;;;;;;;;;;;;;5014998;28;4663;-71
2023/10/28 21:09:37;;;;;;;;;;;;;;;;;;5017086;28;5187;-71
2023/10/28 21:12:05;;;;;;;;;;;;;;;;;;5034271;28;5006;-71
2023/10/28 21:14:59;;;;;;;;;;;;;;;;;;5027002;28;3266;-72
2023/10/28 21:17:24;;;;;;;;;;;;;;;;;;5015095;28;5199;-72
2023/10/28 21:19:50;;;;;;;;;;;;;;;;;;5010762;28;4982;-71
2023/10/28 21:22:15;;;;;;;;;;;;;;;;;;5015388;28;4724;-70
2023/10/28 21:24:40;;;;;;;;;;;;;;;;;;5019769;28;5103;-72
2023/10/28 21:27:06;;;;;;;;;;;;;;;;;;5025881;28;4895;-71
2023/10/28 21:29:31;;;;;;;;;;;;;;;;;;5034860;28;4520;-72
2023/10/28 21:31:56;;;;;;;;;;;;;;;;;;5011827;28;5008;-65
2023/10/28 21:34:22;;;;;;;;;;;;;;;;;;5014254;28;4991;-75
2023/10/28 21:46:26;;;;;;;;;;;;;;;;;;5012521;28;4447;-74
2023/10/28 21:51:55;;;;;;;;;;;;;;;;;;5021974;28;4917;-74
2023/10/28 21:54:21;;;;;;;;;;;;;;;;;;5031412;28;4517;-74
2023/10/28 21:56:46;;;;;;;;;;;;;;;;;;5020337;28;2779;-77
2023/10/28 21:59:22;;;;;;;;;;;;;;;;;;5023487;28;4437;-77
2023/10/28 22:01:48;;;;;;;;;;;;;;;;;;5015623;28;4416;-76
2023/10/28 22:04:17;;;;;;;;;;;;;;;;;;5017140;28;4648;-76
2023/10/28 22:06:43;;;;;;;;;;;;;;;;;;5016314;28;4931;-75
2023/10/28 22:09:08;;;;;;;;;;;;;;;;;;5012664;28;5080;-75
2023/10/28 22:11:34;;;;;;;;;;;;;;;;;;5038193;28;1221;-75
2023/10/28 22:13:59;;;;;;;;;;;;;;;;;;5051090;28;5245;-74
2023/10/28 22:16:59;;;;;;;;;;;;;;;;;;5026339;28;5015;-75
2023/10/28 22:19:25;;;;;;;;;;;;;;;;;;5020967;28;4901;-76